Time;durP1;ratioP1;P1;durP2;ratioP2;P2;SDS_P1;SDS_P2;PMS_P1;PMS_P2;Temp;Humidity;BMP_temperature;BMP_pressure;BME280_temperature;BME280_humidity;BME280_pressure;Samples;Min_cycle;Max_cycle;Signal;HPM_P1;HPM_P2
2022/09/03 00:02:20;;;;;;;1.30;1.10;;;14.70;99.90;;;;;;5034278;28;20390;-67
2022/09/03 00:05:04;;;;;;;1.37;1.10;;;14.80;99.90;;;;;;5034039;28;20500;-67
2022/09/03 00:07:42;;;;;;;1.33;1.20;;;14.70;99.90;;;;;;5034071;28;20737;-67
2022/09/03 00:10:12;;;;;;;5.80;1.20;;;14.70;99.90;;;;;;5034482;28;20409;-68
2022/09/03 00:12:42;;;;;;;3.67;1.10;;;14.70;99.90;;;;;;5034183;28;20399;-68
2022/09/03 00:15:10;;;;;;;1.10;0.90;;;14.60;99.90;;;;;;5033725;28;20453;-68
2022/09/03 00:17:41;;;;;;;1.30;1.07;;;14.60;99.90;;;;;;5033941;28;21107;-67
2022/09/03 00:20:18;;;;;;;2.10;1.10;;;14.60;99.90;;;;;;5034014;28;20865;-66
2022/09/03 00:22:48;;;;;;;1.10;1.00;;;14.60;99.90;;;;;;5033748;28;20440;-67
2022/09/03 00:25:25;;;;;;;2.70;1.10;;;14.50;99.90;;;;;;5033467;28;20402;-67
2022/09/03 00:27:56;;;;;;;1.67;1.57;;;14.50;99.90;;;;;;5033426;28;20394;-67
2022/09/03 00:30:23;;;;;;;1.30;1.20;;;14.50;99.90;;;;;;5033213;28;20778;-66
2022/09/03 00:33:04;;;;;;;1.57;1.10;;;14.50;99.90;;;;;;5033610;28;20414;-66
2022/09/03 00:35:48;;;;;;;1.00;0.93;;;14.40;99.90;;;;;;5033390;28;20825;-67
2022/09/03 00:38:14;;;;;;;1.60;1.20;;;14.50;99.90;;;;;;5033479;28;20418;-67
2022/09/03 00:40:53;;;;;;;2.47;1.00;;;14.40;99.90;;;;;;5033899;28;20402;-68
2022/09/03 00:43:49;;;;;;;2.30;1.27;;;14.40;99.90;;;;;;5034631;28;20394;-67
2022/09/03 00:46:44;;;;;;;1.83;1.20;;;14.30;99.90;;;;;;5034245;28;20793;-69
2022/09/03 00:49:32;;;;;;;2.10;1.10;;;14.30;99.90;;;;;;5035561;28;20450;-67
2022/09/03 00:51:58;;;;;;;2.50;1.13;;;14.30;99.90;;;;;;5034996;28;20387;-68
2022/09/03 00:54:39;;;;;;;1.33;1.10;;;14.20;99.90;;;;;;5034171;28;20441;-67
2022/09/03 00:57:24;;;;;;;2.13;1.70;;;14.20;99.90;;;;;;5033468;28;20163;-68
2022/09/03 00:59:55;;;;;;;1.10;1.00;;;14.20;99.90;;;;;;5033313;28;20496;-67
2022/09/03 01:02:27;;;;;;;4.83;1.37;;;14.20;99.90;;;;;;5033196;28;20463;-67
2022/09/03 01:05:21;;;;;;;1.80;1.10;;;14.20;99.90;;;;;;5030696;28;20421;-68
2022/09/03 01:07:49;;;;;;;2.07;1.53;;;14.10;99.90;;;;;;5033406;28;20402;-68
2022/09/03 01:10:53;;;;;;;1.30;1.10;;;14.10;99.90;;;;;;5033153;28;20407;-66
2022/09/03 01:13:38;;;;;;;3.63;1.43;;;14.00;99.90;;;;;;5033094;28;20402;-66
2022/09/03 01:16:18;;;;;;;0.90;0.90;;;14.00;99.90;;;;;;5032981;28;20446;-67
2022/09/03 01:19:10;;;;;;;3.73;1.20;;;14.00;99.90;;;;;;5032815;28;20426;-67
2022/09/03 01:22:10;;;;;;;1.27;1.17;;;14.00;99.90;;;;;;5032593;28;20409;-67
2022/09/03 01:24:39;;;;;;;1.50;1.10;;;13.90;99.90;;;;;;5029641;28;20978;-67
2022/09/03 01:27:36;;;;;;;1.30;1.00;;;13.90;99.90;;;;;;5032492;28;20542;-67
2022/09/03 01:30:09;;;;;;;1.30;0.80;;;13.90;99.90;;;;;;5032527;28;20767;-67
2022/09/03 01:32:45;;;;;;;1.17;1.07;;;13.90;99.90;;;;;;5032627;28;20932;-67
2022/09/03 01:35:34;;;;;;;1.53;1.23;;;13.90;99.90;;;;;;5032280;28;20500;-67
2022/09/03 01:38:21;;;;;;;2.20;1.30;;;13.80;99.90;;;;;;5032225;28;20464;-67
2022/09/03 01:40:55;;;;;;;1.20;1.10;;;13.80;99.90;;;;;;5032519;28;20485;-67
2022/09/03 01:43:46;;;;;;;2.97;0.97;;;13.80;99.90;;;;;;5032189;28;20411;-67
2022/09/03 01:46:24;;;;;;;3.17;1.13;;;13.80;99.90;;;;;;5032181;28;20923;-67
2022/09/03 01:49:33;;;;;;;1.93;1.37;;;13.80;99.90;;;;;;5032095;28;20513;-67
2022/09/03 01:52:27;;;;;;;1.57;1.07;;;13.70;99.90;;;;;;5032113;28;20456;-67
2022/09/03 01:55:22;;;;;;;2.60;1.37;;;13.70;99.90;;;;;;5029885;28;20450;-67
2022/09/03 01:58:01;;;;;;;2.13;1.30;;;13.80;99.90;;;;;;4977890;28;20417;-68
2022/09/03 02:00:29;;;;;;;1.20;1.10;;;13.70;99.90;;;;;;5032492;28;20405;-67
2022/09/03 02:02:55;;;;;;;1.80;1.10;;;13.70;99.90;;;;;;5032224;28;20422;-67
2022/09/03 02:05:23;;;;;;;1.10;1.00;;;13.70;99.90;;;;;;5031972;28;21168;-67
2022/09/03 02:08:00;;;;;;;1.10;0.90;;;13.70;99.90;;;;;;5032160;28;20171;-67
2022/09/03 02:10:34;;;;;;;1.77;1.13;;;13.70;99.90;;;;;;5032219;28;20406;-67
2022/09/03 02:13:08;;;;;;;1.63;1.10;;;13.60;99.90;;;;;;5031997;28;20398;-67
2022/09/03 02:15:37;;;;;;;1.57;1.30;;;13.60;99.90;;;;;;5031711;28;20796;-67
2022/09/03 02:18:06;;;;;;;1.50;1.30;;;13.60;99.90;;;;;;5031667;28;20485;-68
2022/09/03 02:20:32;;;;;;;1.40;1.00;;;13.60;99.90;;;;;;5031673;28;20406;-69
2022/09/03 02:22:58;;;;;;;1.10;1.00;;;13.50;99.90;;;;;;5031993;28;20460;-68
2022/09/03 02:25:31;;;;;;;1.27;1.00;;;13.50;99.90;;;;;;5031692;28;20456;-68
2022/09/03 02:27:57;;;;;;;1.43;1.00;;;13.50;99.90;;;;;;5031631;28;20976;-67
2022/09/03 02:30:23;;;;;;;2.37;1.30;;;13.50;99.90;;;;;;5031692;28;20413;-68
2022/09/03 02:32:48;;;;;;;2.77;1.17;;;13.40;99.90;;;;;;5031738;28;20406;-68
2022/09/03 02:35:14;;;;;;;1.33;1.03;;;13.50;99.90;;;;;;5031276;28;20253;-68
2022/09/03 02:37:39;;;;;;;1.53;1.40;;;13.40;99.90;;;;;;5031615;28;20167;-68
2022/09/03 02:40:08;;;;;;;1.53;1.10;;;13.50;99.90;;;;;;5031603;28;20669;-68
2022/09/03 02:42:35;;;;;;;2.50;1.50;;;13.40;99.90;;;;;;5031355;28;20171;-67
2022/09/03 02:45:25;;;;;;;1.27;1.17;;;13.40;99.90;;;;;;5031050;28;20506;-67
2022/09/03 02:47:55;;;;;;;1.63;1.27;;;13.30;99.90;;;;;;5031391;28;20406;-67
2022/09/03 02:50:20;;;;;;;2.33;1.20;;;13.30;99.90;;;;;;5031493;28;20480;-68
2022/09/03 02:52:46;;;;;;;1.53;1.10;;;13.20;99.90;;;;;;5031693;28;20410;-68
2022/09/03 02:55:12;;;;;;;3.33;1.23;;;13.20;99.90;;;;;;5034850;28;20203;-68
2022/09/03 02:57:37;;;;;;;1.20;1.10;;;13.20;99.90;;;;;;5035483;28;20642;-67
2022/09/03 03:00:03;;;;;;;1.50;1.10;;;13.20;99.90;;;;;;5035641;28;20407;-68
2022/09/03 03:02:29;;;;;;;2.07;1.20;;;13.10;99.90;;;;;;5035644;28;20259;-68
2022/09/03 03:04:55;;;;;;;5.80;1.20;;;13.10;99.90;;;;;;5035428;28;20497;-68
2022/09/03 03:07:20;;;;;;;2.67;1.10;;;13.10;99.90;;;;;;5035581;28;20176;-68
2022/09/03 03:09:46;;;;;;;0.90;0.90;;;13.00;99.90;;;;;;5036015;28;20713;-68
2022/09/03 03:12:12;;;;;;;1.57;1.33;;;13.00;99.90;;;;;;5035430;28;20167;-68
2022/09/03 03:14:37;;;;;;;1.20;1.10;;;12.90;99.90;;;;;;5034970;28;20218;-67
2022/09/03 03:17:03;;;;;;;1.33;1.00;;;12.90;99.90;;;;;;5035365;28;20492;-67
2022/09/03 03:19:28;;;;;;;1.53;1.00;;;12.90;99.90;;;;;;5035219;28;20255;-67
2022/09/03 03:21:54;;;;;;;1.60;1.30;;;12.90;99.90;;;;;;5035285;28;20602;-67
2022/09/03 03:24:19;;;;;;;1.30;1.20;;;12.90;99.90;;;;;;5035477;28;20664;-68
2022/09/03 03:26:45;;;;;;;3.10;1.20;;;12.90;99.90;;;;;;5035029;28;20183;-68
2022/09/03 03:29:16;;;;;;;1.40;1.30;;;12.90;99.90;;;;;;5035317;28;20195;-68
2022/09/03 03:31:42;;;;;;;1.40;1.30;;;12.90;99.90;;;;;;5034913;28;20195;-68
2022/09/03 03:34:07;;;;;;;1.50;1.20;;;12.90;99.90;;;;;;5034817;28;20410;-68
2022/09/03 03:36:33;;;;;;;1.77;1.60;;;12.80;99.90;;;;;;5034791;28;20410;-68
2022/09/03 03:39:00;;;;;;;1.20;1.10;;;12.80;99.90;;;;;;5035107;28;20183;-68
2022/09/03 03:41:30;;;;;;;2.43;1.13;;;12.80;99.90;;;;;;5035149;28;20222;-67
2022/09/03 03:43:58;;;;;;;2.00;1.40;;;12.70;99.90;;;;;;5034823;28;20429;-68
2022/09/03 03:46:27;;;;;;;1.87;1.73;;;12.70;99.90;;;;;;5034750;28;20460;-68
2022/09/03 03:48:53;;;;;;;1.90;1.07;;;12.80;99.90;;;;;;5034486;28;20459;-68
2022/09/03 03:51:19;;;;;;;3.07;1.30;;;12.80;99.90;;;;;;5034493;28;20419;-67
2022/09/03 03:53:45;;;;;;;1.23;1.13;;;12.80;99.90;;;;;;5034275;28;20405;-68
2022/09/03 03:56:13;;;;;;;1.50;1.30;;;12.80;99.90;;;;;;5034383;28;20211;-68
2022/09/03 03:58:42;;;;;;;3.87;1.90;;;12.80;99.90;;;;;;5034392;28;20427;-68
2022/09/03 04:01:11;;;;;;;4.47;1.83;;;12.80;99.90;;;;;;5034934;28;20391;-68
2022/09/03 04:03:37;;;;;;;2.40;1.30;;;12.80;99.90;;;;;;5034557;28;21123;-66
2022/09/03 04:06:04;;;;;;;1.40;1.17;;;12.80;99.90;;;;;;5034233;28;20483;-68
2022/09/03 04:08:33;;;;;;;1.50;1.23;;;12.80;99.90;;;;;;5034736;28;20430;-68
2022/09/03 04:11:00;;;;;;;1.23;1.10;;;12.80;99.90;;;;;;5034644;28;20501;-68
2022/09/03 04:13:30;;;;;;;1.93;1.30;;;12.80;99.90;;;;;;5034564;28;20415;-68
2022/09/03 04:16:08;;;;;;;2.70;1.40;;;12.80;99.90;;;;;;5034511;28;20452;-66
2022/09/03 04:18:34;;;;;;;2.77;1.20;;;12.80;99.90;;;;;;5034380;28;20430;-68
2022/09/03 04:21:03;;;;;;;1.80;1.20;;;12.80;99.90;;;;;;5033151;28;20408;-67
2022/09/03 04:23:29;;;;;;;1.70;1.60;;;12.80;99.90;;;;;;5034427;28;20484;-67
2022/09/03 04:25:55;;;;;;;3.43;1.60;;;12.80;99.90;;;;;;5034147;28;20410;-67
2022/09/03 04:28:21;;;;;;;2.77;1.53;;;12.80;99.90;;;;;;5034112;28;20418;-67
2022/09/03 04:30:46;;;;;;;1.23;1.13;;;12.80;99.90;;;;;;5034136;28;20254;-67
2022/09/03 04:33:12;;;;;;;2.10;1.77;;;12.70;99.90;;;;;;5034355;28;20418;-67
2022/09/03 04:35:38;;;;;;;1.73;1.50;;;12.60;99.90;;;;;;5034328;28;20188;-66
2022/09/03 04:38:03;;;;;;;2.70;1.60;;;12.60;99.90;;;;;;5034334;28;20187;-67
2022/09/03 04:40:29;;;;;;;2.20;1.90;;;12.60;99.90;;;;;;5034192;28;20171;-67
2022/09/03 04:42:58;;;;;;;2.07;1.70;;;12.60;99.90;;;;;;5034347;28;20175;-67
2022/09/03 04:45:24;;;;;;;1.63;1.53;;;12.60;99.90;;;;;;5033805;28;20170;-67
2022/09/03 04:48:03;;;;;;;1.67;1.53;;;12.70;99.90;;;;;;5034094;28;20415;-67
2022/09/03 04:50:31;;;;;;;2.10;1.67;;;12.70;99.90;;;;;;5033964;28;20184;-67
2022/09/03 04:53:01;;;;;;;1.77;1.53;;;12.70;99.90;;;;;;5033864;28;20411;-67
2022/09/03 04:55:31;;;;;;;2.00;1.50;;;12.70;99.90;;;;;;5033523;28;20488;-67
2022/09/03 04:57:58;;;;;;;1.60;1.50;;;12.70;99.90;;;;;;5033572;28;20492;-67
2022/09/03 05:00:24;;;;;;;1.60;1.50;;;12.80;99.90;;;;;;5033590;28;20407;-67
2022/09/03 05:02:50;;;;;;;1.90;1.60;;;12.80;99.90;;;;;;5033857;28;20457;-68
2022/09/03 05:05:16;;;;;;;3.50;1.60;;;12.90;99.90;;;;;;5033783;28;20410;-67
2022/09/03 05:07:42;;;;;;;5.13;1.80;;;12.90;99.90;;;;;;5033602;28;20445;-68
2022/09/03 05:10:14;;;;;;;3.57;1.67;;;13.00;99.90;;;;;;5033325;28;20925;-67
2022/09/03 05:12:40;;;;;;;1.80;1.70;;;13.00;99.90;;;;;;5033940;28;20179;-67
2022/09/03 05:15:07;;;;;;;1.97;1.57;;;13.00;99.90;;;;;;5033220;28;20438;-68
2022/09/03 05:17:32;;;;;;;1.53;1.43;;;13.00;99.90;;;;;;5032720;28;20168;-68
2022/09/03 05:19:58;;;;;;;1.50;1.40;;;13.00;99.90;;;;;;5033977;28;20426;-68
2022/09/03 05:22:23;;;;;;;2.27;1.87;;;13.00;99.90;;;;;;5033298;28;20642;-67
2022/09/03 05:24:49;;;;;;;2.07;1.40;;;12.90;99.90;;;;;;5031892;28;20185;-66
2022/09/03 05:27:16;;;;;;;2.03;1.57;;;13.00;99.90;;;;;;5033523;28;20175;-67
2022/09/03 05:29:45;;;;;;;1.90;1.30;;;13.00;99.90;;;;;;5033416;28;20475;-67
2022/09/03 05:32:11;;;;;;;2.77;1.60;;;13.10;99.90;;;;;;5032880;28;20505;-67
2022/09/03 05:34:37;;;;;;;2.90;2.23;;;13.10;99.90;;;;;;5032634;28;20442;-67
2022/09/03 05:37:03;;;;;;;2.67;1.70;;;13.20;99.90;;;;;;5033154;28;20954;-67
2022/09/03 05:39:29;;;;;;;4.30;2.10;;;13.30;99.90;;;;;;5032686;28;20419;-67
2022/09/03 05:41:54;;;;;;;1.50;1.40;;;13.50;99.90;;;;;;5032654;28;20237;-67
2022/09/03 05:44:22;;;;;;;1.60;1.50;;;13.60;99.90;;;;;;5032692;28;20218;-67
2022/09/03 05:46:49;;;;;;;1.60;1.50;;;13.80;99.90;;;;;;5032476;28;20661;-66
2022/09/03 05:49:15;;;;;;;2.63;1.60;;;14.20;99.90;;;;;;5032386;28;20994;-67
2022/09/03 05:51:41;;;;;;;3.13;2.00;;;14.50;99.90;;;;;;5032995;28;20489;-67
2022/09/03 05:54:08;;;;;;;1.93;1.30;;;14.50;99.90;;;;;;5032916;28;20229;-67
2022/09/03 05:56:34;;;;;;;1.60;1.50;;;14.70;99.90;;;;;;5032344;28;20421;-67
2022/09/03 05:59:04;;;;;;;1.80;1.67;;;14.30;99.90;;;;;;5032802;28;20427;-68
2022/09/03 06:01:35;;;;;;;1.90;1.60;;;14.20;99.90;;;;;;5032585;28;20402;-68
2022/09/03 06:04:01;;;;;;;2.10;1.30;;;14.10;99.90;;;;;;5032429;28;20485;-68
2022/09/03 06:06:28;;;;;;;2.53;1.80;;;14.10;99.90;;;;;;5032163;28;20905;-68
2022/09/03 06:08:57;;;;;;;4.87;1.70;;;14.50;99.90;;;;;;5032433;28;20429;-67
2022/09/03 06:11:26;;;;;;;2.40;1.60;;;15.50;99.90;;;;;;5032379;28;20431;-67
2022/09/03 06:13:56;;;;;;;2.40;1.70;;;16.30;99.90;;;;;;5032387;28;20412;-67
2022/09/03 06:16:22;;;;;;;2.00;1.80;;;16.70;99.90;;;;;;5032224;28;20458;-67
2022/09/03 06:18:48;;;;;;;2.07;1.47;;;17.20;99.90;;;;;;5032051;28;20718;-67
2022/09/03 06:21:14;;;;;;;2.03;1.40;;;17.20;99.90;;;;;;5032094;28;20497;-67
2022/09/03 06:23:41;;;;;;;3.80;1.13;;;17.50;99.90;;;;;;5031973;28;20166;-67
2022/09/03 06:26:09;;;;;;;2.43;1.83;;;17.40;99.90;;;;;;5032038;28;20179;-67
2022/09/03 06:28:37;;;;;;;1.53;1.20;;;17.40;99.90;;;;;;5031159;28;21036;-67
2022/09/03 06:31:05;;;;;;;1.80;1.40;;;17.00;99.90;;;;;;5032151;28;20420;-67
2022/09/03 06:33:33;;;;;;;1.97;1.70;;;16.80;99.90;;;;;;5031932;28;20751;-68
2022/09/03 06:35:59;;;;;;;3.77;1.30;;;17.20;99.90;;;;;;5031700;28;20983;-69
2022/09/03 06:38:36;;;;;;;1.80;1.27;;;17.40;99.90;;;;;;5031833;28;20433;-68
2022/09/03 06:41:04;;;;;;;3.00;2.80;;;17.40;99.90;;;;;;5032184;28;20792;-68
2022/09/03 06:43:32;;;;;;;1.30;1.20;;;17.10;99.90;;;;;;5031964;28;20416;-67
2022/09/03 06:46:02;;;;;;;1.53;1.27;;;17.20;99.90;;;;;;5031566;28;20499;-67
2022/09/03 06:48:30;;;;;;;1.70;1.40;;;17.10;99.90;;;;;;5066654;22;20438;-71
2022/09/03 06:50:58;;;;;;;2.13;1.33;;;17.00;99.90;;;;;;5030948;28;20420;-73
2022/09/03 06:53:26;;;;;;;1.97;1.33;;;17.20;99.90;;;;;;5032170;28;20394;-72
2022/09/03 06:56:02;;;;;;;1.40;1.30;;;17.10;99.90;;;;;;5032475;28;20456;-72
2022/09/03 06:58:29;;;;;;;2.80;1.63;;;16.90;99.90;;;;;;5038257;28;20876;-73
2022/09/03 07:01:02;;;;;;;1.70;1.30;;;16.60;99.90;;;;;;5038562;28;20855;-72
2022/09/03 07:03:28;;;;;;;2.23;1.53;;;16.50;99.90;;;;;;5032244;28;21004;-72
2022/09/03 07:05:59;;;;;;;1.80;1.70;;;16.70;99.90;;;;;;5031872;28;20404;-73
2022/09/03 07:08:25;;;;;;;2.20;1.70;;;16.80;99.90;;;;;;5031958;28;20406;-72
2022/09/03 07:10:51;;;;;;;1.50;1.40;;;17.80;99.90;;;;;;5031996;28;20414;-72
2022/09/03 07:13:19;;;;;;;2.13;1.30;;;18.30;99.90;;;;;;5032228;28;20902;-74
2022/09/03 07:15:45;;;;;;;1.67;1.40;;;18.80;99.90;;;;;;5030611;28;21008;-73
2022/09/03 07:18:11;;;;;;;2.20;1.40;;;18.90;99.90;;;;;;5032009;28;20437;-73
2022/09/03 07:20:36;;;;;;;1.43;1.07;;;19.30;99.90;;;;;;5032366;28;20778;-74
2022/09/03 07:23:02;;;;;;;4.30;1.40;;;20.30;99.90;;;;;;5032212;28;20174;-73
2022/09/03 07:25:29;;;;;;;1.60;1.23;;;20.60;99.20;;;;;;5032162;28;20173;-72
2022/09/03 07:27:55;;;;;;;1.40;1.17;;;20.80;99.20;;;;;;5032102;28;20186;-73
2022/09/03 07:30:21;;;;;;;1.47;1.13;;;21.40;97.40;;;;;;5031955;28;20438;-72
2022/09/03 07:32:50;;;;;;;2.03;1.43;;;21.30;96.90;;;;;;5031820;28;20908;-71
2022/09/03 07:35:18;;;;;;;1.50;1.17;;;21.80;96.30;;;;;;5031558;28;20241;-72
2022/09/03 07:37:44;;;;;;;1.77;1.30;;;20.80;96.40;;;;;;5031780;28;20409;-72
2022/09/03 07:40:10;;;;;;;1.73;1.63;;;21.40;96.50;;;;;;5032710;28;20899;-72
2022/09/03 07:42:38;;;;;;;1.17;1.07;;;20.80;96.30;;;;;;5035439;28;20716;-72
2022/09/03 07:45:08;;;;;;;1.97;1.53;;;20.40;97.30;;;;;;5035584;28;20172;-73
2022/09/03 07:47:34;;;;;;;1.10;1.00;;;20.80;96.30;;;;;;5035461;28;20413;-73
2022/09/03 07:50:00;;;;;;;2.43;1.63;;;20.60;96.90;;;;;;5035095;28;20468;-72
2022/09/03 07:52:26;;;;;;;1.67;1.30;;;20.60;96.20;;;;;;5035309;28;20420;-72
2022/09/03 07:54:52;;;;;;;2.20;1.27;;;19.90;96.70;;;;;;5034903;28;20198;-72
2022/09/03 07:57:18;;;;;;;4.43;1.90;;;19.20;98.00;;;;;;5034863;28;20558;-72
2022/09/03 07:59:43;;;;;;;2.07;1.30;;;19.00;98.20;;;;;;5034772;28;20202;-72
2022/09/03 08:02:09;;;;;;;1.73;1.40;;;18.80;98.50;;;;;;5034711;28;20672;-72
2022/09/03 08:04:34;;;;;;;1.83;1.40;;;18.80;99.10;;;;;;5034704;28;20183;-72
2022/09/03 08:07:00;;;;;;;1.30;1.20;;;18.80;99.40;;;;;;5034739;28;20178;-73
2022/09/03 08:09:26;;;;;;;1.70;1.60;;;18.90;98.60;;;;;;5034612;28;20193;-72
2022/09/03 08:11:51;;;;;;;1.30;1.20;;;19.30;98.50;;;;;;5034509;28;20226;-72
2022/09/03 08:14:17;;;;;;;5.63;1.67;;;19.90;97.80;;;;;;5034459;28;20213;-72
2022/09/03 08:16:47;;;;;;;2.40;1.20;;;20.40;96.70;;;;;;5034714;28;20179;-72
2022/09/03 08:19:14;;;;;;;2.37;1.40;;;20.10;96.60;;;;;;5034620;28;20433;-72
2022/09/03 08:21:40;;;;;;;3.00;1.20;;;19.80;97.20;;;;;;5034358;28;20420;-73
2022/09/03 08:24:07;;;;;;;1.77;1.23;;;19.70;97.20;;;;;;5033174;28;20836;-72
2022/09/03 08:26:35;;;;;;;2.03;1.37;;;19.80;97.60;;;;;;5034171;28;20421;-72
2022/09/03 08:29:01;;;;;;;1.40;1.17;;;19.60;97.30;;;;;;5034389;28;20510;-73
2022/09/03 08:31:28;;;;;;;2.03;1.20;;;19.70;97.10;;;;;;5034487;28;20948;-73
2022/09/03 08:33:56;;;;;;;1.20;1.00;;;19.80;96.80;;;;;;5034378;28;20410;-73
2022/09/03 08:36:24;;;;;;;1.40;1.30;;;20.20;96.90;;;;;;5034241;28;21034;-73
2022/09/03 08:38:53;;;;;;;3.03;1.50;;;20.10;96.90;;;;;;5034217;28;20822;-73
2022/09/03 08:41:58;;;;;;;2.03;1.33;;;20.00;97.10;;;;;;5034284;28;20407;-74
2022/09/03 08:44:50;;;;;;;1.23;1.13;;;20.60;96.70;;;;;;5036388;28;20479;-73
2022/09/03 08:47:25;;;;;;;2.33;1.10;;;20.80;96.40;;;;;;5038855;28;20963;-74
2022/09/03 08:50:12;;;;;;;2.07;1.43;;;21.10;95.20;;;;;;5033826;28;20861;-72
2022/09/03 08:53:08;;;;;;;2.70;1.30;;;21.30;94.70;;;;;;5033202;28;20776;-73
2022/09/03 08:55:46;;;;;;;1.47;1.37;;;21.40;94.60;;;;;;5033576;28;20450;-73
2022/09/03 08:58:13;;;;;;;1.40;1.30;;;21.70;94.50;;;;;;5033659;28;20412;-73
2022/09/03 09:01:00;;;;;;;1.43;1.27;;;22.00;93.60;;;;;;5033840;28;20923;-72
2022/09/03 09:03:45;;;;;;;1.57;1.40;;;21.60;94.10;;;;;;5034450;28;20401;-72
2022/09/03 09:06:10;;;;;;;1.90;1.30;;;22.50;93.90;;;;;;5033704;28;20477;-74
2022/09/03 09:09:15;;;;;;;2.03;1.30;;;22.70;93.30;;;;;;5034011;28;20429;-73
2022/09/03 09:12:28;;;;;;;3.70;1.30;;;22.30;93.70;;;;;;5033892;28;20173;-73
2022/09/03 09:15:22;;;;;;;1.67;1.10;;;22.60;93.60;;;;;;5019042;28;20822;-72
2022/09/03 09:18:08;;;;;;;1.60;1.50;;;22.70;92.40;;;;;;5033153;28;20914;-72
2022/09/03 09:20:45;;;;;;;2.70;1.60;;;23.00;91.30;;;;;;5033156;28;20436;-73
2022/09/03 09:23:23;;;;;;;1.90;1.20;;;22.80;91.60;;;;;;5033328;28;20417;-73
2022/09/03 09:25:50;;;;;;;1.70;1.40;;;22.60;91.70;;;;;;5033218;28;20414;-73
2022/09/03 09:28:26;;;;;;;2.37;1.50;;;22.80;91.00;;;;;;5033086;28;20410;-72
2022/09/03 09:30:55;;;;;;;1.10;1.00;;;22.90;90.70;;;;;;5033172;28;20412;-73
2022/09/03 09:33:22;;;;;;;1.83;1.20;;;23.10;90.60;;;;;;5032800;28;20407;-73
2022/09/03 09:35:48;;;;;;;3.30;1.10;;;22.90;90.70;;;;;;5032678;28;20463;-73
2022/09/03 09:38:26;;;;;;;1.67;1.40;;;23.00;90.00;;;;;;5032674;28;20492;-73
2022/09/03 09:40:51;;;;;;;1.43;1.33;;;22.90;87.00;;;;;;5033320;28;20413;-73
2022/09/03 09:43:20;;;;;;;2.27;1.40;;;22.80;87.90;;;;;;5033549;28;20838;-73
2022/09/03 09:45:51;;;;;;;2.30;1.47;;;23.20;87.30;;;;;;5032943;28;20179;-73
2022/09/03 09:48:38;;;;;;;2.10;1.37;;;23.50;86.70;;;;;;5032918;28;20552;-74
2022/09/03 09:51:20;;;;;;;1.60;1.13;;;23.00;87.20;;;;;;5032693;28;20507;-72
2022/09/03 09:53:59;;;;;;;1.30;1.20;;;22.20;86.70;;;;;;5032632;28;20753;-73
2022/09/03 09:56:25;;;;;;;1.60;1.10;;;22.10;86.60;;;;;;5032423;28;20555;-72
2022/09/03 09:59:05;;;;;;;1.00;0.90;;;21.80;87.30;;;;;;5032595;28;20440;-73
2022/09/03 10:01:31;;;;;;;2.30;1.17;;;21.80;88.60;;;;;;5031486;28;20415;-73
2022/09/03 10:04:09;;;;;;;2.83;1.50;;;21.50;89.40;;;;;;5032611;28;20793;-73
2022/09/03 10:06:54;;;;;;;1.63;1.30;;;21.00;87.90;;;;;;5032568;28;20411;-73
2022/09/03 10:09:22;;;;;;;1.50;1.03;;;21.20;88.60;;;;;;5032980;28;20774;-73
2022/09/03 10:11:50;;;;;;;1.80;1.30;;;21.30;87.30;;;;;;5032529;28;20412;-73
2022/09/03 10:14:38;;;;;;;2.00;1.23;;;21.40;87.90;;;;;;5032424;28;20907;-75
2022/09/03 10:17:41;;;;;;;4.27;1.87;;;20.90;87.80;;;;;;5032038;28;20415;-72
2022/09/03 10:20:36;;;;;;;1.60;1.20;;;21.00;88.10;;;;;;5032126;28;20471;-72
2022/09/03 10:23:24;;;;;;;1.50;1.40;;;20.70;82.20;;;;;;5031877;28;20844;-72
2022/09/03 10:26:06;;;;;;;1.77;1.43;;;20.90;83.70;;;;;;5031713;28;20911;-72
2022/09/03 10:28:40;;;;;;;2.70;1.90;;;21.10;83.50;;;;;;5032027;28;20432;-72
2022/09/03 10:31:17;;;;;;;1.10;1.00;;;21.10;83.20;;;;;;5037949;28;20408;-72
2022/09/03 10:33:58;;;;;;;1.37;1.20;;;21.10;83.70;;;;;;5032268;28;20399;-73
2022/09/03 10:36:33;;;;;;;1.30;1.20;;;21.10;81.50;;;;;;5032321;28;20448;-73
2022/09/03 10:39:38;;;;;;;1.10;0.93;;;21.10;80.40;;;;;;5031980;28;20486;-73
2022/09/03 10:42:20;;;;;;;0.83;0.80;;;20.90;80.10;;;;;;5014256;28;20574;-73
2022/09/03 10:45:30;;;;;;;4.97;1.27;;;20.90;79.90;;;;;;5031837;28;20418;-72
2022/09/03 10:48:14;;;;;;;1.00;0.90;;;21.20;79.60;;;;;;5003204;28;20740;-73
2022/09/03 10:50:54;;;;;;;1.70;1.30;;;21.30;79.10;;;;;;5031992;28;20427;-72
2022/09/03 10:53:23;;;;;;;1.60;1.20;;;20.80;81.20;;;;;;5031599;28;20438;-72
2022/09/03 10:56:07;;;;;;;1.30;0.97;;;20.90;82.20;;;;;;5031310;28;20458;-72
2022/09/03 10:58:47;;;;;;;1.20;1.10;;;21.00;81.80;;;;;;5031388;28;20476;-72
2022/09/03 11:01:21;;;;;;;1.60;1.10;;;21.10;81.70;;;;;;5031503;28;20411;-73
2022/09/03 11:04:33;;;;;;;2.10;1.20;;;20.90;82.00;;;;;;5031992;28;20399;-72
2022/09/03 11:07:06;;;;;;;0.77;0.77;;;20.90;83.00;;;;;;4970077;28;20528;-73
2022/09/03 11:10:04;;;;;;;1.53;1.00;;;20.90;83.60;;;;;;4970412;28;20441;-72
2022/09/03 11:12:38;;;;;;;1.27;1.17;;;21.10;82.80;;;;;;5018828;28;20514;-72
2022/09/03 11:15:11;;;;;;;1.07;0.97;;;20.90;82.70;;;;;;5032193;28;20451;-73
2022/09/03 11:17:45;;;;;;;1.20;1.10;;;21.00;83.90;;;;;;5035553;28;20522;-73
2022/09/03 11:20:17;;;;;;;1.27;1.07;;;21.30;83.20;;;;;;5035271;28;20434;-73
2022/09/03 11:22:45;;;;;;;1.10;1.00;;;21.50;82.60;;;;;;5035812;28;20396;-72
2022/09/03 11:25:14;;;;;;;1.60;1.20;;;21.80;81.00;;;;;;5034925;28;20916;-72
2022/09/03 11:27:39;;;;;;;2.73;1.10;;;21.80;80.10;;;;;;5035201;28;20422;-73
2022/09/03 11:30:07;;;;;;;1.33;1.23;;;21.80;79.60;;;;;;5034687;28;20441;-73
2022/09/03 11:32:51;;;;;;;1.70;1.00;;;21.70;79.10;;;;;;5035376;28;20231;-73
2022/09/03 11:35:32;;;;;;;2.27;1.63;;;21.60;80.20;;;;;;5034914;28;20459;-73
2022/09/03 11:38:00;;;;;;;1.20;1.10;;;21.50;79.70;;;;;;5033585;28;20421;-73
2022/09/03 11:40:35;;;;;;;1.40;1.30;;;21.40;79.70;;;;;;5034910;28;20442;-73
2022/09/03 11:43:24;;;;;;;1.23;1.00;;;21.70;79.70;;;;;;5035240;28;20773;-73
2022/09/03 11:46:11;;;;;;;1.67;1.17;;;21.90;78.40;;;;;;5034755;28;20417;-73
2022/09/03 11:48:36;;;;;;;1.03;1.00;;;21.90;78.30;;;;;;5034391;28;21017;-73
2022/09/03 11:51:03;;;;;;;1.30;1.20;;;22.10;77.90;;;;;;5034512;28;20500;-72
2022/09/03 11:53:35;;;;;;;2.27;1.33;;;21.80;79.70;;;;;;5034911;28;20176;-73
2022/09/03 11:56:17;;;;;;;3.57;1.30;;;21.70;79.60;;;;;;5034110;28;20542;-72
2022/09/03 11:58:43;;;;;;;1.40;1.20;;;21.60;80.10;;;;;;5034634;28;20418;-72
2022/09/03 12:01:14;;;;;;;1.97;1.40;;;21.30;80.50;;;;;;5034609;28;20904;-73
2022/09/03 12:03:48;;;;;;;1.50;1.10;;;21.50;79.90;;;;;;5034761;28;20168;-73
2022/09/03 12:06:51;;;;;;;1.53;1.00;;;21.30;79.30;;;;;;5034921;28;20405;-73
2022/09/03 12:09:50;;;;;;;2.70;1.13;;;21.60;80.00;;;;;;5034699;28;20420;-73
2022/09/03 12:12:39;;;;;;;3.90;1.20;;;21.50;78.80;;;;;;5036460;28;20401;-73
2022/09/03 12:15:25;;;;;;;1.50;0.93;;;21.40;78.80;;;;;;5038276;28;20452;-73
2022/09/03 12:20:40;;;;;;;1.70;1.20;;;21.40;78.40;;;;;;5034942;28;20484;-72
2022/09/03 12:23:06;;;;;;;1.53;1.20;;;21.40;79.00;;;;;;5033244;28;20444;-73
2022/09/03 12:25:32;;;;;;;2.33;1.47;;;21.50;79.00;;;;;;5034186;28;20182;-73
2022/09/03 12:28:02;;;;;;;1.20;1.10;;;21.40;77.30;;;;;;5032777;28;20413;-72
2022/09/03 12:30:29;;;;;;;1.27;1.13;;;21.40;77.20;;;;;;5033929;28;20763;-73
2022/09/03 12:33:06;;;;;;;1.03;0.87;;;21.80;77.60;;;;;;5034183;28;20494;-73
2022/09/03 12:35:32;;;;;;;1.20;1.10;;;21.80;77.70;;;;;;5033910;28;20486;-72
2022/09/03 12:37:57;;;;;;;1.33;1.10;;;21.90;76.10;;;;;;5033985;28;20496;-73
2022/09/03 12:40:28;;;;;;;1.07;0.97;;;21.80;74.30;;;;;;5034014;28;20201;-73
2022/09/03 12:43:10;;;;;;;1.20;1.10;;;21.80;73.80;;;;;;5033973;28;20171;-73
2022/09/03 12:45:49;;;;;;;1.53;1.10;;;21.80;72.70;;;;;;5034044;28;20914;-72
2022/09/03 12:48:16;;;;;;;1.33;1.00;;;22.00;72.20;;;;;;5033651;28;20410;-71
2022/09/03 12:50:43;;;;;;;1.13;1.03;;;22.30;72.40;;;;;;5072174;22;20478;-68
2022/09/03 12:53:13;;;;;;;1.40;1.30;;;22.30;70.80;;;;;;5054107;28;20868;-68
2022/09/03 12:55:40;;;;;;;1.10;1.00;;;22.40;71.40;;;;;;5053558;28;20896;-68
2022/09/03 12:58:23;;;;;;;1.13;1.00;;;22.60;70.60;;;;;;5054118;28;20441;-68
2022/09/03 13:01:19;;;;;;;2.90;2.60;;;22.30;70.30;;;;;;5054094;28;20419;-68
2022/09/03 13:03:57;;;;;;;1.73;0.90;;;22.40;70.90;;;;;;5045289;28;20422;-69
2022/09/03 13:06:28;;;;;;;1.47;1.37;;;22.30;69.90;;;;;;5053855;28;20406;-68
2022/09/03 13:09:05;;;;;;;1.40;1.27;;;22.20;70.60;;;;;;5053644;28;20770;-67
2022/09/03 13:11:35;;;;;;;1.23;1.13;;;22.10;71.70;;;;;;5053653;28;20774;-68
2022/09/03 13:14:09;;;;;;;1.40;1.20;;;22.00;71.70;;;;;;5055749;28;20433;-69
2022/09/03 13:16:44;;;;;;;1.73;1.63;;;21.80;72.10;;;;;;5057004;28;20439;-69
2022/09/03 13:19:09;;;;;;;1.30;1.00;;;21.70;72.50;;;;;;5053075;28;20478;-69
2022/09/03 13:21:47;;;;;;;2.50;1.07;;;21.80;72.70;;;;;;5053036;28;20435;-69